Portada
METAR-TAF:

METAR-TAF

Aeropuertos :

Jasper, Georgia, Estados Unidos

latitud: 34-27-12N, longitud: 084-27-26W, altitud: 468 m

Observación

El informe se hizo hace 17 minutos, a las 05:35 UTC
Viento calma
Temperatura 3°C
Humedad 70%
Presión 1033 hPa
Visibilidad: 16.1 km
Cielo despejado

METAR: KJZP 120535Z AUTO 00000KT 10SM CLR 03/M02 A3051 RMK AO2 T00331021

Hora: 00:52 (05:52 UTC)


TAF: falta

Observaciones y pronósticos meteorológicos de más de 4000 aeropuertos (mensajes METAR y TAF).

Los puntos amarillos y rojos representan las estaciones disponibles.

Ponga el ratón en el punto deseado para ver el nombre de la estación.

Haga clic para ver las observaciones y los pronósticos meteorológicos.

Para cambiar el mapa : haga clic en los botones verdes con una cruz de color negro para hacer un zoom, en el botón verde con un guión para alejar o en las flechas verdes para mapas adyacentes.


METAR-TAF: